createdAt,value
2018-03-04T00:00:09.462Z,129.50
2018-03-04T00:01:12.862Z,116.60
2018-03-04T00:02:16.340Z,114.05
2018-03-04T00:03:19.671Z,121.60
2018-03-04T00:04:23.344Z,121.00
2018-03-04T00:05:26.713Z,122.18
2018-03-04T00:06:30.200Z,117.70
2018-03-04T00:07:33.509Z,130.90
2018-03-04T00:08:36.886Z,118.53
2018-03-04T00:09:40.255Z,121.40
2018-03-04T00:10:43.585Z,110.28
2018-03-04T00:11:46.953Z,122.78
2018-03-04T00:12:50.346Z,118.03
2018-03-04T00:13:53.745Z,120.40
2018-03-04T00:14:57.079Z,116.20
2018-03-04T00:16:00.457Z,117.95
2018-03-04T00:17:03.858Z,125.35
2018-03-04T00:18:07.187Z,117.13
2018-03-04T00:19:10.512Z,125.35
2018-03-04T00:20:13.827Z,117.95
2018-03-04T00:21:17.146Z,115.62
2018-03-04T00:22:20.548Z,123.78
2018-03-04T00:23:23.894Z,127.15
2018-03-04T00:24:27.284Z,110.40
2018-03-04T00:25:30.636Z,110.47
2018-03-04T00:26:34.015Z,131.20
2018-03-04T00:27:37.330Z,109.32
2018-03-04T00:28:40.689Z,114.12
2018-03-04T00:29:44.080Z,122.72
2018-03-04T00:30:47.493Z,136.12
2018-03-04T00:31:50.879Z,126.25
2018-03-04T00:32:54.195Z,124.53
2018-03-04T00:33:57.549Z,132.20
2018-03-04T00:35:00.928Z,122.90
2018-03-04T00:36:04.392Z,111.68
2018-03-04T00:37:07.782Z,115.60
2018-03-04T00:38:11.113Z,116.75
2018-03-04T00:39:14.513Z,118.20
2018-03-04T00:40:17.855Z,123.28
2018-03-04T00:41:21.178Z,117.45
2018-03-04T00:42:24.521Z,124.07
2018-03-04T00:43:27.945Z,116.88
2018-03-04T00:44:31.297Z,120.70
2018-03-04T00:45:34.686Z,124.55
2018-03-04T00:46:38.176Z,110.35
2018-03-04T00:47:41.480Z,123.47
2018-03-04T00:48:44.821Z,114.62
2018-03-04T00:49:48.228Z,125.75
2018-03-04T00:50:51.559Z,129.25
2018-03-04T00:51:54.961Z,123.95
2018-03-04T00:52:58.256Z,129.02
2018-03-04T00:54:01.646Z,121.45
2018-03-04T00:55:04.981Z,124.87
2018-03-04T00:56:08.347Z,121.25
2018-03-04T00:57:11.652Z,125.45
2018-03-04T00:58:14.985Z,108.80
2018-03-04T00:59:18.329Z,132.25
2018-03-04T01:00:21.740Z,128.87
2018-03-04T01:01:25.075Z,120.62
2018-03-04T01:02:28.501Z,120.47
2018-03-04T01:03:31.895Z,129.05
2018-03-04T01:04:35.431Z,119.82
2018-03-04T01:05:38.856Z,120.03
2018-03-04T01:06:42.245Z,128.35
2018-03-04T01:07:45.584Z,131.63
2018-03-04T01:08:48.977Z,129.00
2018-03-04T01:09:52.303Z,129.02
2018-03-04T01:10:55.732Z,130.98
2018-03-04T01:11:59.072Z,118.62
2018-03-04T01:13:02.444Z,135.93
2018-03-04T01:14:05.802Z,136.00
2018-03-04T01:15:09.249Z,126.30
2018-03-04T01:16:12.565Z,109.00
2018-03-04T01:17:15.993Z,124.93
2018-03-04T01:18:19.411Z,133.87
2018-03-04T01:19:22.776Z,129.85
2018-03-04T01:20:26.082Z,124.68
2018-03-04T01:21:29.433Z,124.78
2018-03-04T01:22:32.814Z,118.50
2018-03-04T01:23:36.109Z,126.55
2018-03-04T01:24:39.571Z,126.90
2018-03-04T01:25:42.908Z,130.60
2018-03-04T01:26:46.240Z,124.32
2018-03-04T01:27:49.573Z,129.80
2018-03-04T01:28:52.887Z,130.15
2018-03-04T01:29:56.239Z,133.55
2018-03-04T01:30:59.705Z,125.80
2018-03-04T01:32:03.160Z,125.55
2018-03-04T01:33:06.500Z,136.90
2018-03-04T01:34:09.903Z,130.63
2018-03-04T01:35:13.321Z,127.62
2018-03-04T01:36:16.666Z,125.43
2018-03-04T01:37:20.049Z,129.18
2018-03-04T01:38:23.470Z,126.97
2018-03-04T01:39:26.834Z,131.57
2018-03-04T01:40:30.181Z,124.32
2018-03-04T01:41:33.525Z,131.45
2018-03-04T01:42:36.852Z,124.85
2018-03-04T01:43:40.230Z,124.47
2018-03-04T01:44:43.593Z,129.05
2018-03-04T01:45:46.917Z,126.07
2018-03-04T01:46:50.261Z,123.35
2018-03-04T01:47:53.713Z,130.27
2018-03-04T01:48:57.040Z,139.37
2018-03-04T01:50:00.344Z,114.93
2018-03-04T01:51:03.673Z,131.48
2018-03-04T01:52:07.048Z,132.93
2018-03-04T01:53:10.499Z,127.43
2018-03-04T01:54:13.882Z,126.60
2018-03-04T01:55:17.214Z,135.88
2018-03-04T01:56:20.529Z,121.55
2018-03-04T01:57:23.885Z,117.50
2018-03-04T01:58:27.296Z,128.12
2018-03-04T01:59:30.616Z,124.65
2018-03-04T02:00:33.958Z,131.70
2018-03-04T02:01:37.388Z,114.90
2018-03-04T02:02:40.758Z,130.07
2018-03-04T02:03:44.121Z,123.18
2018-03-04T02:04:47.797Z,125.28
2018-03-04T02:05:51.133Z,134.80
2018-03-04T02:06:54.582Z,128.55
2018-03-04T02:07:57.945Z,125.72
2018-03-04T02:09:01.454Z,133.02
2018-03-04T02:10:04.814Z,128.98
2018-03-04T02:11:08.140Z,128.90
2018-03-04T02:12:11.600Z,126.15
2018-03-04T02:13:14.910Z,119.78
2018-03-04T02:14:18.260Z,121.00
2018-03-04T02:15:21.662Z,128.52
2018-03-04T02:16:24.966Z,134.27
2018-03-04T02:17:28.315Z,129.98
2018-03-04T02:18:31.704Z,118.57
2018-03-04T02:19:35.121Z,130.70
2018-03-04T02:20:38.495Z,120.65
2018-03-04T02:21:41.824Z,129.40
2018-03-04T02:22:45.132Z,126.43
2018-03-04T02:23:48.451Z,129.23
2018-03-04T02:24:51.844Z,130.75
2018-03-04T02:25:55.176Z,123.45
2018-03-04T02:26:58.485Z,127.22
2018-03-04T02:28:01.873Z,124.65
2018-03-04T02:29:05.398Z,123.18
2018-03-04T02:30:08.784Z,120.22
2018-03-04T02:31:12.134Z,138.82
2018-03-04T02:32:15.446Z,132.70
2018-03-04T02:33:18.862Z,127.43
2018-03-04T02:34:22.182Z,116.70
2018-03-04T02:35:25.576Z,125.43
2018-03-04T02:36:28.914Z,135.57
2018-03-04T02:37:32.242Z,128.73
2018-03-04T02:38:35.711Z,129.55
2018-03-04T02:39:39.018Z,124.95
2018-03-04T02:40:42.371Z,124.55
2018-03-04T02:41:45.786Z,125.38
2018-03-04T02:42:49.104Z,122.72
2018-03-04T02:43:52.453Z,133.02
2018-03-04T02:44:55.848Z,128.55
2018-03-04T02:45:59.284Z,119.68
2018-03-04T02:47:02.605Z,118.37
2018-03-04T02:48:05.966Z,117.93
2018-03-04T02:49:09.337Z,130.40
2018-03-04T02:50:12.724Z,120.30
2018-03-04T02:51:16.459Z,120.07
2018-03-04T02:52:19.774Z,127.38
2018-03-04T02:53:23.125Z,133.18
2018-03-04T02:54:26.425Z,124.12
2018-03-04T02:55:29.797Z,138.40
2018-03-04T02:56:33.184Z,131.27
2018-03-04T02:57:36.487Z,126.35
2018-03-04T02:59:03.117Z,123.13
2018-03-04T03:00:06.461Z,122.85
2018-03-04T03:01:09.805Z,129.02
2018-03-04T03:02:13.131Z,140.10
2018-03-04T03:03:16.465Z,126.70
2018-03-04T03:04:19.838Z,115.40
2018-03-04T03:05:23.270Z,135.85
2018-03-04T03:06:26.795Z,124.85
2018-03-04T03:07:30.130Z,115.47
2018-03-04T03:08:33.442Z,111.55
2018-03-04T03:09:36.880Z,127.57
2018-03-04T03:10:40.260Z,123.10
2018-03-04T03:11:43.569Z,129.77
2018-03-04T03:12:46.967Z,124.82
2018-03-04T03:13:50.316Z,119.43
2018-03-04T03:14:53.624Z,125.12
2018-03-04T03:15:57.012Z,132.60
2018-03-04T03:17:00.353Z,104.32
2018-03-04T03:18:03.765Z,128.38
2018-03-04T03:19:07.124Z,130.32
2018-03-04T03:20:10.422Z,125.90
2018-03-04T03:21:13.766Z,123.07
2018-03-04T03:22:17.082Z,122.10
2018-03-04T03:23:20.487Z,121.47
2018-03-04T03:24:23.821Z,133.37
2018-03-04T03:25:27.209Z,118.97
2018-03-04T03:26:30.527Z,121.05
2018-03-04T03:27:33.860Z,116.88
2018-03-04T03:28:37.211Z,122.97
2018-03-04T03:29:40.543Z,117.80
2018-03-04T03:30:43.881Z,137.45
2018-03-04T03:31:47.241Z,121.87
2018-03-04T03:32:50.554Z,122.35
2018-03-04T03:33:53.957Z,121.13
2018-03-04T03:34:57.268Z,122.22
2018-03-04T03:36:00.620Z,127.70
2018-03-04T03:37:03.938Z,122.78
2018-03-04T03:38:07.275Z,128.20
2018-03-04T03:39:10.717Z,120.45
2018-03-04T03:40:14.072Z,119.37
2018-03-04T03:41:17.408Z,130.30
2018-03-04T03:42:20.753Z,111.68
2018-03-04T03:43:24.078Z,127.22
2018-03-04T03:44:27.580Z,128.05
2018-03-04T03:45:30.916Z,116.12
2018-03-04T03:46:34.221Z,120.13
2018-03-04T03:47:37.665Z,127.82
2018-03-04T03:48:41.016Z,123.82
2018-03-04T03:49:44.441Z,121.45
2018-03-04T03:50:47.784Z,121.68
2018-03-04T03:51:51.085Z,119.13
2018-03-04T03:52:54.449Z,109.75
2018-03-04T03:53:57.778Z,114.95
2018-03-04T03:55:01.166Z,122.97
2018-03-04T03:56:04.564Z,131.85
2018-03-04T03:57:07.928Z,113.47
2018-03-04T03:58:11.221Z,125.40
2018-03-04T03:59:14.608Z,115.55
2018-03-04T04:00:18.032Z,124.00
2018-03-04T04:01:21.334Z,118.97
2018-03-04T04:02:24.825Z,119.35
2018-03-04T04:03:28.132Z,115.45
2018-03-04T04:04:31.450Z,122.80
2018-03-04T04:05:35.018Z,126.12
2018-03-04T04:06:38.424Z,118.45
2018-03-04T04:07:41.773Z,126.87
2018-03-04T04:08:45.162Z,117.05
2018-03-04T04:09:48.562Z,120.75
2018-03-04T04:10:51.920Z,118.53
2018-03-04T04:11:55.268Z,115.43
2018-03-04T04:12:58.648Z,111.90
2018-03-04T04:14:02.042Z,127.00
2018-03-04T04:15:05.360Z,115.85
2018-03-04T04:16:08.747Z,119.03
2018-03-04T04:17:12.106Z,120.07
2018-03-04T04:18:15.408Z,119.97
2018-03-04T04:19:18.748Z,121.25
2018-03-04T04:20:22.109Z,122.35
2018-03-04T04:21:25.470Z,122.65
2018-03-04T04:22:28.806Z,127.07
2018-03-04T04:23:32.191Z,125.55
2018-03-04T04:24:35.524Z,128.20
2018-03-04T04:25:38.956Z,116.85
2018-03-04T04:26:42.295Z,115.82
2018-03-04T04:27:45.626Z,123.18
2018-03-04T04:28:48.949Z,124.62
2018-03-04T04:29:52.357Z,114.35
2018-03-04T04:30:55.679Z,112.28
2018-03-04T04:31:59.013Z,117.75
2018-03-04T04:33:02.349Z,119.07
2018-03-04T04:34:05.681Z,131.37
2018-03-04T04:35:09.023Z,122.10
2018-03-04T04:36:12.340Z,121.70
2018-03-04T04:37:15.732Z,116.47
2018-03-04T04:38:19.086Z,118.72
2018-03-04T04:39:22.397Z,117.75
2018-03-04T04:40:25.803Z,119.15
2018-03-04T04:41:29.132Z,121.47
2018-03-04T04:42:32.522Z,121.60
2018-03-04T04:43:35.837Z,121.95
2018-03-04T04:44:39.214Z,114.85
2018-03-04T04:45:42.519Z,122.53
2018-03-04T04:46:45.841Z,117.43
2018-03-04T04:47:49.232Z,119.53
2018-03-04T04:48:52.579Z,114.22
2018-03-04T04:49:55.906Z,117.35
2018-03-04T04:50:59.290Z,118.93
2018-03-04T04:52:02.623Z,121.07
2018-03-04T04:53:06.040Z,115.78
2018-03-04T04:54:09.347Z,122.65
2018-03-04T04:55:12.694Z,122.22
2018-03-04T04:56:16.147Z,130.00
2018-03-04T04:57:19.557Z,120.00
2018-03-04T04:58:22.936Z,111.80
2018-03-04T04:59:26.292Z,120.53
2018-03-04T05:00:29.572Z,109.07
2018-03-04T05:01:32.999Z,117.65
2018-03-04T05:02:36.415Z,125.00
2018-03-04T05:03:39.797Z,118.82
2018-03-04T05:04:43.198Z,118.28
2018-03-04T05:05:46.833Z,116.28
2018-03-04T05:06:50.229Z,116.40
2018-03-04T05:07:53.549Z,119.45
2018-03-04T05:08:56.910Z,113.95
2018-03-04T05:10:00.297Z,118.03
2018-03-04T05:11:03.603Z,117.75
2018-03-04T05:12:06.957Z,117.87
2018-03-04T05:13:10.303Z,114.70
2018-03-04T05:14:13.710Z,120.57
2018-03-04T05:15:17.061Z,118.50
2018-03-04T05:16:20.432Z,115.32
2018-03-04T05:17:23.745Z,121.72
2018-03-04T05:18:27.086Z,129.52
2018-03-04T05:19:30.478Z,116.60
2018-03-04T05:20:33.795Z,120.78
2018-03-04T05:21:37.194Z,113.37
2018-03-04T05:22:40.571Z,116.82
2018-03-04T05:23:43.895Z,126.45
2018-03-04T05:24:47.258Z,119.28
2018-03-04T05:25:50.565Z,118.53
2018-03-04T05:26:53.963Z,118.75
2018-03-04T05:27:57.283Z,113.70
2018-03-04T05:29:00.660Z,126.32
2018-03-04T05:30:04.058Z,123.75
2018-03-04T05:31:07.395Z,123.00
2018-03-04T05:32:10.715Z,124.00
2018-03-04T05:33:14.131Z,116.72
2018-03-04T05:34:17.501Z,116.97
2018-03-04T05:35:20.874Z,121.53
2018-03-04T05:36:24.233Z,118.40
2018-03-04T05:37:27.608Z,133.10
2018-03-04T05:38:31.000Z,125.47
2018-03-04T05:39:34.333Z,111.03
2018-03-04T05:40:37.712Z,113.97
2018-03-04T05:41:41.056Z,131.68
2018-03-04T05:42:44.380Z,116.32
2018-03-04T05:43:47.756Z,125.00
2018-03-04T05:44:51.096Z,113.12
2018-03-04T05:45:54.564Z,117.65
2018-03-04T05:46:57.919Z,113.47
2018-03-04T05:48:01.321Z,112.55
2018-03-04T05:49:04.646Z,123.90
2018-03-04T05:50:08.039Z,119.00
2018-03-04T05:51:11.452Z,134.98
2018-03-04T05:52:14.806Z,114.72
2018-03-04T05:53:18.121Z,119.43
2018-03-04T05:54:21.481Z,119.05
2018-03-04T05:55:24.833Z,128.50
2018-03-04T05:56:28.342Z,120.55
2018-03-04T05:57:31.744Z,120.97
2018-03-04T05:58:35.133Z,131.63
2018-03-04T05:59:38.502Z,126.38
2018-03-04T06:00:41.825Z,126.38
2018-03-04T06:01:45.234Z,127.95
2018-03-04T06:02:48.599Z,115.93
2018-03-04T06:03:51.945Z,118.47
2018-03-04T06:04:55.372Z,115.72
2018-03-04T06:05:58.831Z,117.53
2018-03-04T06:07:02.169Z,117.95
2018-03-04T06:08:05.515Z,123.28
2018-03-04T06:09:08.881Z,128.65
2018-03-04T06:10:12.224Z,130.70
2018-03-04T06:11:15.601Z,116.47
2018-03-04T06:12:19.063Z,127.03
2018-03-04T06:13:22.365Z,118.78
2018-03-04T06:14:25.701Z,112.78
2018-03-04T06:15:29.091Z,117.57
2018-03-04T06:16:32.484Z,130.65
2018-03-04T06:17:35.845Z,124.85
2018-03-04T06:18:39.281Z,125.80
2018-03-04T06:19:42.638Z,118.13
2018-03-04T06:20:45.977Z,128.68
2018-03-04T06:21:49.337Z,118.75
2018-03-04T06:22:52.728Z,120.18
2018-03-04T06:23:56.029Z,111.37
2018-03-04T06:24:59.356Z,123.25
2018-03-04T06:26:02.674Z,108.93
2018-03-04T06:27:06.039Z,122.97
2018-03-04T06:28:09.372Z,122.55
2018-03-04T06:29:12.739Z,107.82
2018-03-04T06:30:16.121Z,128.60
2018-03-04T06:31:19.533Z,116.47
2018-03-04T06:32:22.916Z,119.45
2018-03-04T06:33:26.462Z,118.68
2018-03-04T06:34:29.765Z,122.75
2018-03-04T06:35:33.090Z,114.05
2018-03-04T06:36:36.477Z,122.43
2018-03-04T06:37:39.771Z,123.68
2018-03-04T06:38:43.133Z,122.68
2018-03-04T06:39:46.466Z,123.13
2018-03-04T06:40:49.834Z,130.25
2018-03-04T06:41:53.211Z,119.10
2018-03-04T06:42:56.520Z,114.30
2018-03-04T06:44:00.913Z,121.35
2018-03-04T06:45:04.320Z,112.40
2018-03-04T06:46:07.738Z,120.50
2018-03-04T06:47:11.052Z,110.20
2018-03-04T06:48:14.400Z,123.53
2018-03-04T06:49:17.781Z,117.53
2018-03-04T06:50:21.157Z,117.15
2018-03-04T06:51:24.493Z,117.62
2018-03-04T06:52:27.953Z,122.90
2018-03-04T06:53:31.338Z,117.22
2018-03-04T06:54:34.691Z,109.85
2018-03-04T06:55:38.007Z,109.30
2018-03-04T06:56:41.348Z,117.10
2018-03-04T06:57:44.727Z,121.87
2018-03-04T06:58:48.039Z,115.30
2018-03-04T06:59:51.374Z,116.22
2018-03-04T07:00:54.760Z,124.85
2018-03-04T07:01:58.089Z,106.12
2018-03-04T07:03:01.457Z,131.93
2018-03-04T07:04:04.804Z,105.32
2018-03-04T07:05:08.190Z,117.32
2018-03-04T07:06:11.578Z,117.00
2018-03-04T07:07:14.919Z,114.90
2018-03-04T07:08:18.259Z,115.37
2018-03-04T07:09:21.589Z,126.45
2018-03-04T07:10:25.037Z,116.03
2018-03-04T07:11:28.374Z,105.47
2018-03-04T07:12:31.720Z,112.95
2018-03-04T07:13:35.054Z,112.30
2018-03-04T07:14:38.621Z,108.43
2018-03-04T07:15:41.992Z,109.60
2018-03-04T07:16:45.317Z,116.07
2018-03-04T07:17:48.696Z,123.87
2018-03-04T07:18:52.058Z,106.85
2018-03-04T07:19:55.435Z,111.88
2018-03-04T07:20:58.776Z,101.05
2018-03-04T07:22:02.230Z,117.20
2018-03-04T07:23:05.593Z,109.93
2018-03-04T07:24:08.922Z,105.60
2018-03-04T07:25:12.243Z,104.18
2018-03-04T07:26:15.599Z,100.68
2018-03-04T07:27:19.039Z,117.37
2018-03-04T07:28:22.438Z,101.43
2018-03-04T07:29:25.774Z,101.80
2018-03-04T07:30:29.055Z,97.03
2018-03-04T07:31:32.480Z,106.68
2018-03-04T07:32:35.955Z,93.28
2018-03-04T07:33:39.389Z,103.55
2018-03-04T07:34:42.800Z,100.68
2018-03-04T07:35:46.188Z,114.78
2018-03-04T07:36:49.545Z,100.93
2018-03-04T07:37:53.110Z,104.55
2018-03-04T07:38:56.521Z,102.87
2018-03-04T07:39:59.824Z,115.43
2018-03-04T07:41:03.153Z,110.43
2018-03-04T07:42:06.583Z,104.05
2018-03-04T07:43:09.927Z,95.97
2018-03-04T07:44:13.298Z,100.62
2018-03-04T07:45:16.622Z,97.57
2018-03-04T07:46:20.014Z,98.15
2018-03-04T07:47:23.504Z,95.80
2018-03-04T07:48:26.910Z,87.82
2018-03-04T07:49:30.235Z,105.20
2018-03-04T07:50:33.555Z,98.57
2018-03-04T07:51:36.964Z,87.97
2018-03-04T07:52:40.369Z,103.03
2018-03-04T07:53:43.751Z,99.85
2018-03-04T07:54:47.167Z,92.22
2018-03-04T07:55:50.627Z,97.18
2018-03-04T07:56:53.988Z,95.15
2018-03-04T07:57:57.341Z,119.07
2018-03-04T07:59:00.684Z,93.10
2018-03-04T08:00:04.027Z,92.97
2018-03-04T08:01:07.381Z,89.47
2018-03-04T08:02:10.801Z,101.05
2018-03-04T08:03:14.256Z,105.35
2018-03-04T08:04:17.574Z,99.87
2018-03-04T08:05:20.960Z,101.07
2018-03-04T08:06:24.551Z,90.72
2018-03-04T08:07:27.899Z,104.35
2018-03-04T08:08:31.243Z,87.40
2018-03-04T08:09:34.675Z,92.57
2018-03-04T08:10:37.997Z,104.00
2018-03-04T08:11:41.314Z,86.45
2018-03-04T08:12:44.639Z,88.50
2018-03-04T08:13:48.003Z,87.03
2018-03-04T08:14:51.337Z,99.62
2018-03-04T08:15:54.822Z,88.93
2018-03-04T08:16:58.146Z,91.55
2018-03-04T08:18:01.564Z,86.93
2018-03-04T08:19:04.916Z,88.57
2018-03-04T08:20:08.270Z,89.87
2018-03-04T08:21:11.585Z,87.45
2018-03-04T08:22:14.918Z,96.07
2018-03-04T08:23:18.274Z,89.22
2018-03-04T08:24:33.392Z,80.70
2018-03-04T08:25:36.736Z,83.28
2018-03-04T08:26:51.837Z,84.90
2018-03-04T08:28:06.969Z,82.32
2018-03-04T08:29:10.276Z,79.15
2018-03-04T08:30:13.784Z,92.07
2018-03-04T08:31:17.168Z,91.65
2018-03-04T08:32:20.463Z,94.90
2018-03-04T08:33:23.878Z,91.82
2018-03-04T08:34:27.207Z,88.93
2018-03-04T08:35:30.571Z,83.28
2018-03-04T08:36:33.876Z,86.37
2018-03-04T08:37:37.258Z,82.30
2018-03-04T08:38:40.644Z,81.78
2018-03-04T08:39:44.040Z,95.43
2018-03-04T08:40:47.440Z,73.47
2018-03-04T08:41:50.848Z,79.60
2018-03-04T08:42:54.186Z,89.20
2018-03-04T08:43:57.531Z,92.07
2018-03-04T08:45:00.847Z,83.03
2018-03-04T08:46:04.270Z,84.20
2018-03-04T08:47:07.575Z,88.32
2018-03-04T08:48:10.991Z,92.47
2018-03-04T08:49:14.328Z,88.78
2018-03-04T08:50:17.717Z,81.55
2018-03-04T08:51:21.100Z,76.28
2018-03-04T08:52:24.652Z,92.95
2018-03-04T08:53:27.999Z,85.55
2018-03-04T08:54:31.367Z,80.75
2018-03-04T08:55:34.704Z,75.93
2018-03-04T08:56:38.132Z,87.32
2018-03-04T08:57:41.419Z,82.68
2018-03-04T08:58:44.743Z,76.95
2018-03-04T08:59:48.141Z,81.20
2018-03-04T09:00:51.489Z,72.35
2018-03-04T09:01:54.822Z,79.90
2018-03-04T09:02:58.184Z,80.87
2018-03-04T09:04:01.607Z,83.40
2018-03-04T09:05:04.955Z,88.12
2018-03-04T09:06:08.277Z,87.45
2018-03-04T09:07:11.949Z,79.43
2018-03-04T09:08:15.261Z,76.53
2018-03-04T09:09:18.600Z,82.65
2018-03-04T09:10:21.959Z,75.60
2018-03-04T09:11:25.334Z,86.07
2018-03-04T09:12:28.716Z,87.20
2018-03-04T09:13:32.049Z,82.00
2018-03-04T09:14:35.497Z,70.95
2018-03-04T09:15:38.815Z,73.85
2018-03-04T09:16:42.223Z,78.82
2018-03-04T09:17:45.678Z,77.62
2018-03-04T09:18:49.017Z,79.35
2018-03-04T09:19:52.355Z,79.28
2018-03-04T09:20:55.706Z,81.50
2018-03-04T09:21:59.164Z,88.32
2018-03-04T09:23:02.498Z,81.12
2018-03-04T09:24:05.872Z,94.75
2018-03-04T09:25:09.305Z,87.85
2018-03-04T09:26:12.605Z,79.97
2018-03-04T09:27:15.914Z,86.45
2018-03-04T09:28:19.335Z,77.18
2018-03-04T09:29:22.779Z,73.05
2018-03-04T09:30:26.188Z,87.35
2018-03-04T09:31:29.841Z,90.15
2018-03-04T09:32:33.168Z,91.25
2018-03-04T09:33:36.525Z,84.90
2018-03-04T09:34:39.911Z,88.22
2018-03-04T09:35:43.350Z,81.35
2018-03-04T09:36:46.767Z,91.75
2018-03-04T09:37:50.172Z,82.70
2018-03-04T09:38:53.569Z,83.68
2018-03-04T09:39:57.046Z,97.45
2018-03-04T09:41:00.344Z,83.82
2018-03-04T09:42:03.818Z,89.15
2018-03-04T09:43:07.208Z,78.57
2018-03-04T09:44:10.677Z,78.32
2018-03-04T09:45:14.004Z,78.35
2018-03-04T09:46:17.378Z,75.87
2018-03-04T09:47:20.750Z,76.97
2018-03-04T09:48:24.076Z,74.12
2018-03-04T09:49:27.440Z,77.10
2018-03-04T09:50:30.876Z,74.47
2018-03-04T09:51:34.205Z,84.00
2018-03-04T09:52:37.601Z,79.25
2018-03-04T09:53:40.968Z,75.53
2018-03-04T09:54:44.353Z,79.65
2018-03-04T09:55:47.661Z,78.75
2018-03-04T09:56:51.042Z,77.72
2018-03-04T09:57:54.447Z,76.90
2018-03-04T09:58:57.908Z,74.80
2018-03-04T10:00:01.281Z,82.72
2018-03-04T10:01:04.615Z,80.40
2018-03-04T10:02:07.996Z,77.50
2018-03-04T10:03:11.329Z,93.85
2018-03-04T10:04:14.813Z,83.70
2018-03-04T10:05:18.159Z,79.07
2018-03-04T10:06:21.603Z,74.25
2018-03-04T10:07:25.274Z,78.03
2018-03-04T10:08:28.569Z,68.68
2018-03-04T10:09:31.901Z,77.07
2018-03-04T10:10:35.271Z,77.60
2018-03-04T10:11:38.599Z,84.13
2018-03-04T10:12:41.981Z,80.20
2018-03-04T10:13:45.334Z,81.70
2018-03-04T10:14:48.701Z,78.35
2018-03-04T10:15:52.060Z,75.60
2018-03-04T10:16:55.382Z,71.35
2018-03-04T10:17:58.890Z,74.65
2018-03-04T10:19:02.227Z,82.28
2018-03-04T10:20:05.529Z,79.70
2018-03-04T10:21:08.960Z,77.25
2018-03-04T10:22:12.344Z,77.40
2018-03-04T10:23:18.521Z,78.55
2018-03-04T10:24:21.985Z,79.00
2018-03-04T10:25:25.369Z,76.18
2018-03-04T10:26:28.862Z,74.72
2018-03-04T10:27:32.226Z,68.28
2018-03-04T10:28:35.645Z,76.35
2018-03-04T10:29:38.959Z,71.90
2018-03-04T10:30:42.264Z,75.47
2018-03-04T10:31:45.609Z,63.78
2018-03-04T10:32:48.932Z,77.30
2018-03-04T10:33:52.244Z,74.78
2018-03-04T10:34:55.593Z,68.72
2018-03-04T10:35:58.990Z,68.70
2018-03-04T10:37:02.328Z,70.25
2018-03-04T10:38:05.693Z,70.50
2018-03-04T10:39:09.036Z,78.82
2018-03-04T10:40:12.393Z,71.60
2018-03-04T10:41:15.753Z,75.35
2018-03-04T10:42:19.094Z,72.65
2018-03-04T10:43:22.438Z,72.50
2018-03-04T10:44:25.991Z,71.35
2018-03-04T10:45:29.381Z,69.32
2018-03-04T10:46:32.713Z,70.37
2018-03-04T10:47:36.167Z,69.00
2018-03-04T10:48:39.553Z,59.40
2018-03-04T10:49:42.943Z,71.87
2018-03-04T10:50:46.314Z,72.47
2018-03-04T10:51:49.744Z,71.25
2018-03-04T10:52:53.087Z,68.15
2018-03-04T10:53:56.480Z,69.45
2018-03-04T10:54:59.889Z,77.15
2018-03-04T10:56:03.231Z,69.18
2018-03-04T10:57:06.631Z,71.78
2018-03-04T10:58:10.136Z,70.30
2018-03-04T10:59:13.498Z,72.60
2018-03-04T11:00:16.815Z,70.60
2018-03-04T11:01:20.189Z,70.18
2018-03-04T11:02:23.535Z,72.95
2018-03-04T11:03:26.887Z,72.53
2018-03-04T11:04:30.179Z,77.07
2018-03-04T11:05:33.538Z,63.33
2018-03-04T11:06:37.002Z,69.87
2018-03-04T11:07:40.479Z,67.80
2018-03-04T11:08:43.853Z,75.20
2018-03-04T11:09:47.225Z,76.05
2018-03-04T11:10:50.601Z,76.30
2018-03-04T11:11:54.014Z,62.35
2018-03-04T11:12:57.409Z,66.78
2018-03-04T11:14:00.799Z,63.13
2018-03-04T11:15:04.246Z,71.40
2018-03-04T11:16:07.579Z,68.82
2018-03-04T11:17:10.909Z,68.93
2018-03-04T11:18:14.284Z,65.45
2018-03-04T11:19:17.712Z,68.75
2018-03-04T11:20:21.090Z,69.65
2018-03-04T11:21:24.418Z,75.22
2018-03-04T11:22:28.326Z,71.05
2018-03-04T11:23:31.790Z,68.15
2018-03-04T11:24:35.223Z,63.05
2018-03-04T11:25:38.547Z,58.63
2018-03-04T11:26:41.892Z,65.22
2018-03-04T11:27:46.112Z,66.35
2018-03-04T11:28:49.452Z,64.07
2018-03-04T11:29:52.874Z,69.65
2018-03-04T11:30:56.200Z,63.50
2018-03-04T11:31:59.556Z,67.72
2018-03-04T11:33:02.933Z,62.55
2018-03-04T11:34:06.407Z,68.75
2018-03-04T11:35:09.782Z,67.32
2018-03-04T11:36:13.165Z,66.37
2018-03-04T11:37:16.468Z,57.90
2018-03-04T11:38:19.841Z,62.80
2018-03-04T11:39:23.231Z,75.95
2018-03-04T11:40:26.559Z,63.17
2018-03-04T11:41:29.902Z,71.70
2018-03-04T11:42:33.217Z,64.15
2018-03-04T11:43:36.530Z,62.70
2018-03-04T11:44:39.846Z,71.70
2018-03-04T11:45:43.298Z,77.82
2018-03-04T11:46:46.723Z,62.78
2018-03-04T11:47:50.209Z,82.25
2018-03-04T11:48:53.697Z,72.60
2018-03-04T11:49:57.028Z,75.43
2018-03-04T11:51:00.461Z,68.43
2018-03-04T11:52:03.844Z,64.40
2018-03-04T11:53:07.185Z,62.70
2018-03-04T11:54:10.509Z,55.92
2018-03-04T11:55:13.918Z,62.50
2018-03-04T11:56:17.314Z,61.55
2018-03-04T11:57:20.629Z,55.53
2018-03-04T11:58:24.036Z,61.85
2018-03-04T11:59:27.435Z,63.25
2018-03-04T12:00:30.881Z,64.37
2018-03-04T12:01:34.299Z,67.07
2018-03-04T12:02:37.629Z,64.95
2018-03-04T12:03:40.941Z,58.08
2018-03-04T12:04:44.322Z,56.28
2018-03-04T12:05:47.709Z,55.58
2018-03-04T12:06:51.096Z,57.65
2018-03-04T12:07:54.515Z,60.12
2018-03-04T12:08:57.828Z,56.08
2018-03-04T12:10:01.203Z,54.63
2018-03-04T12:11:04.512Z,55.17
2018-03-04T12:12:07.864Z,58.47
2018-03-04T12:13:11.277Z,59.88
2018-03-04T12:14:14.600Z,63.25
2018-03-04T12:15:18.037Z,55.10
2018-03-04T12:16:21.427Z,68.82
2018-03-04T12:17:24.791Z,62.22
2018-03-04T12:18:28.124Z,62.30
2018-03-04T12:19:31.427Z,65.10
2018-03-04T12:20:34.761Z,63.80
2018-03-04T12:21:38.402Z,60.17
2018-03-04T12:22:41.721Z,58.50
2018-03-04T12:23:45.106Z,66.37
2018-03-04T12:24:48.444Z,52.50
2018-03-04T12:25:51.793Z,63.50
2018-03-04T12:26:55.143Z,60.53
2018-03-04T12:27:58.547Z,57.67
2018-03-04T12:29:01.957Z,61.40
2018-03-04T12:30:05.406Z,55.60
2018-03-04T12:31:08.762Z,58.47
2018-03-04T12:32:12.097Z,57.70
2018-03-04T12:33:15.574Z,53.25
2018-03-04T12:34:19.024Z,62.28
2018-03-04T12:35:22.373Z,66.82
2018-03-04T12:36:25.806Z,52.60
2018-03-04T12:37:29.135Z,57.20
2018-03-04T12:38:32.542Z,53.33
2018-03-04T12:39:35.863Z,59.25
2018-03-04T12:40:39.205Z,61.83
2018-03-04T12:41:42.608Z,65.55
2018-03-04T12:42:45.932Z,56.03
2018-03-04T12:43:49.307Z,56.10
2018-03-04T12:44:52.718Z,59.40
2018-03-04T12:45:56.060Z,55.45
2018-03-04T12:46:59.513Z,56.17
2018-03-04T12:48:02.982Z,52.25
2018-03-04T12:49:06.370Z,61.80
2018-03-04T12:50:09.809Z,59.13
2018-03-04T12:51:13.121Z,59.28
2018-03-04T12:52:16.446Z,62.20
2018-03-04T12:53:19.768Z,56.67
2018-03-04T12:54:23.245Z,62.17
2018-03-04T12:55:26.657Z,55.90
2018-03-04T12:56:30.052Z,60.00
2018-03-04T12:57:33.357Z,54.90
2018-03-04T12:58:36.972Z,57.05
2018-03-04T12:59:40.308Z,56.80
2018-03-04T13:00:43.741Z,59.70
2018-03-04T13:01:47.181Z,54.17
2018-03-04T13:02:50.512Z,54.47
2018-03-04T13:03:53.882Z,54.22
2018-03-04T13:04:57.305Z,50.08
2018-03-04T13:06:00.617Z,59.25
2018-03-04T13:07:04.134Z,51.22
2018-03-04T13:08:07.918Z,58.30
2018-03-04T13:09:11.240Z,47.92
2018-03-04T13:10:14.653Z,44.95
2018-03-04T13:11:18.060Z,45.28
2018-03-04T13:12:21.457Z,42.20
2018-03-04T13:13:24.788Z,46.13
2018-03-04T13:14:28.217Z,42.55
2018-03-04T13:15:31.550Z,39.63
2018-03-04T13:16:34.883Z,44.80
2018-03-04T13:17:38.302Z,43.13
2018-03-04T13:18:41.832Z,40.83
2018-03-04T13:19:45.147Z,41.92
2018-03-04T13:20:48.498Z,55.80
2018-03-04T13:21:51.935Z,43.40